sensor_id;sensor_type;location;lat;lon;timestamp;pressure;altitude;pressure_sealevel;temperature;humidity
63556;BME280;49700;48.072;7.800;2023-03-26T00:01:01;99097.22;;;11.87;58.89
63556;BME280;49700;48.072;7.800;2023-03-26T00:03:30;99088.59;;;11.85;58.91
63556;BME280;49700;48.072;7.800;2023-03-26T00:06:07;99101.03;;;11.83;59.03
63556;BME280;49700;48.072;7.800;2023-03-26T00:08:34;99091.44;;;11.82;58.86
63556;BME280;49700;48.072;7.800;2023-03-26T00:11:00;99097.69;;;11.81;58.96
63556;BME280;49700;48.072;7.800;2023-03-26T00:13:25;99097.06;;;11.77;58.90
63556;BME280;49700;48.072;7.800;2023-03-26T00:15:51;99095.28;;;11.78;58.89
63556;BME280;49700;48.072;7.800;2023-03-26T00:18:20;99096.13;;;11.78;58.91
63556;BME280;49700;48.072;7.800;2023-03-26T00:20:49;99088.34;;;11.77;58.62
63556;BME280;49700;48.072;7.800;2023-03-26T00:23:15;99091.78;;;11.77;58.60
63556;BME280;49700;48.072;7.800;2023-03-26T00:25:41;99087.41;;;11.78;58.39
63556;BME280;49700;48.072;7.800;2023-03-26T00:28:08;99093.50;;;11.78;58.37
63556;BME280;49700;48.072;7.800;2023-03-26T00:30:34;99094.31;;;11.79;58.09
63556;BME280;49700;48.072;7.800;2023-03-26T00:33:03;99096.97;;;11.79;58.07
63556;BME280;49700;48.072;7.800;2023-03-26T00:35:35;99087.16;;;11.81;58.01
63556;BME280;49700;48.072;7.800;2023-03-26T00:38:01;99087.16;;;11.81;57.99
63556;BME280;49700;48.072;7.800;2023-03-26T00:40:26;99088.00;;;11.81;57.49
63556;BME280;49700;48.072;7.800;2023-03-26T00:42:52;99082.72;;;11.81;57.58
63556;BME280;49700;48.072;7.800;2023-03-26T00:45:17;99079.13;;;11.82;57.42
63556;BME280;49700;48.072;7.800;2023-03-26T00:47:45;99078.28;;;11.82;57.45
63556;BME280;49700;48.072;7.800;2023-03-26T00:50:11;99081.06;;;11.80;57.27
63556;BME280;49700;48.072;7.800;2023-03-26T00:52:42;99076.63;;;11.81;57.27
63556;BME280;49700;48.072;7.800;2023-03-26T00:55:08;99070.63;;;11.79;57.20
63556;BME280;49700;48.072;7.800;2023-03-26T00:57:34;99065.47;;;11.77;57.19
63556;BME280;49700;48.072;7.800;2023-03-26T01:00:05;99075.19;;;11.77;57.20
63556;BME280;49700;48.072;7.800;2023-03-26T01:02:33;99070.75;;;11.77;56.99
63556;BME280;49700;48.072;7.800;2023-03-26T01:04:59;99056.91;;;11.75;56.95
63556;BME280;49700;48.072;7.800;2023-03-26T01:07:28;99055.09;;;11.76;56.91
63556;BME280;49700;48.072;7.800;2023-03-26T01:09:57;99047.19;;;11.76;56.68
63556;BME280;49700;48.072;7.800;2023-03-26T01:12:27;99049.84;;;11.76;56.52
63556;BME280;49700;48.072;7.800;2023-03-26T01:14:58;99039.31;;;11.76;56.30
63556;BME280;49700;48.072;7.800;2023-03-26T01:17:26;99037.50;;;11.76;56.29
63556;BME280;49700;48.072;7.800;2023-03-26T01:22:46;99029.63;;;11.76;55.78
63556;BME280;49700;48.072;7.800;2023-03-26T01:25:13;99019.94;;;11.77;55.90
63556;BME280;49700;48.072;7.800;2023-03-26T01:27:49;99011.09;;;11.78;55.58
63556;BME280;49700;48.072;7.800;2023-03-26T01:33:15;98992.88;;;11.74;55.27
63556;BME280;49700;48.072;7.800;2023-03-26T01:36:19;98973.53;;;11.76;55.10
63556;BME280;49700;48.072;7.800;2023-03-26T01:38:55;98969.22;;;11.74;55.01
63556;BME280;49700;48.072;7.800;2023-03-26T01:41:32;98964.09;;;11.73;54.61
63556;BME280;49700;48.072;7.800;2023-03-26T01:47:00;98944.34;;;11.67;55.08
63556;BME280;49700;48.072;7.800;2023-03-26T01:49:27;98937.41;;;11.66;54.84
63556;BME280;49700;48.072;7.800;2023-03-26T01:51:54;98926.88;;;11.66;54.79
63556;BME280;49700;48.072;7.800;2023-03-26T01:54:23;98920.09;;;11.64;54.76
63556;BME280;49700;48.072;7.800;2023-03-26T02:02:30;98914.38;;;11.59;54.89
63556;BME280;49700;48.072;7.800;2023-03-26T02:05:11;98912.66;;;11.58;54.87
63556;BME280;49700;48.072;7.800;2023-03-26T02:10:34;98899.66;;;11.56;54.72
63556;BME280;49700;48.072;7.800;2023-03-26T02:13:03;98884.72;;;11.57;54.70
63556;BME280;49700;48.072;7.800;2023-03-26T02:15:31;98885.53;;;11.57;54.60
63556;BME280;49700;48.072;7.800;2023-03-26T02:17:56;98886.38;;;11.58;54.66
63556;BME280;49700;48.072;7.800;2023-03-26T02:20:24;98882.66;;;11.60;54.54
63556;BME280;49700;48.072;7.800;2023-03-26T02:22:57;98874.78;;;11.60;54.71
63556;BME280;49700;48.072;7.800;2023-03-26T02:25:25;98863.41;;;11.60;54.61
63556;BME280;49700;48.072;7.800;2023-03-26T02:27:51;98869.50;;;11.60;54.50
63556;BME280;49700;48.072;7.800;2023-03-26T02:30:20;98855.41;;;11.61;54.35
63556;BME280;49700;48.072;7.800;2023-03-26T02:32:51;98845.59;;;11.63;54.22
63556;BME280;49700;48.072;7.800;2023-03-26T02:35:23;98831.50;;;11.64;54.33
63556;BME280;49700;48.072;7.800;2023-03-26T02:37:54;98832.31;;;11.65;54.38
63556;BME280;49700;48.072;7.800;2023-03-26T02:40:21;98830.53;;;11.65;54.27
63556;BME280;49700;48.072;7.800;2023-03-26T02:42:48;98836.63;;;11.66;54.30
63556;BME280;49700;48.072;7.800;2023-03-26T02:45:14;98829.69;;;11.65;54.42
63556;BME280;49700;48.072;7.800;2023-03-26T02:48:03;98831.59;;;11.63;54.42
63556;BME280;49700;48.072;7.800;2023-03-26T02:50:48;98828.25;;;11.61;54.41
63556;BME280;49700;48.072;7.800;2023-03-26T02:53:37;98804.09;;;11.56;54.72
63556;BME280;49700;48.072;7.800;2023-03-26T02:56:17;98812.16;;;11.54;54.86
63556;BME280;49700;48.072;7.800;2023-03-26T02:58:57;98806.16;;;11.52;54.78
63556;BME280;49700;48.072;7.800;2023-03-26T03:01:22;98806.06;;;11.54;54.87
63556;BME280;49700;48.072;7.800;2023-03-26T03:04:16;98804.38;;;11.52;54.92
63556;BME280;49700;48.072;7.800;2023-03-26T03:06:43;98803.53;;;11.52;54.96
63556;BME280;49700;48.072;7.800;2023-03-26T03:09:10;98801.88;;;11.51;54.98
63556;BME280;49700;48.072;7.800;2023-03-26T03:11:37;98797.44;;;11.51;55.01
63556;BME280;49700;48.072;7.800;2023-03-26T03:14:04;98794.69;;;11.53;54.84
63556;BME280;49700;48.072;7.800;2023-03-26T03:16:31;98784.28;;;11.51;54.92
63556;BME280;49700;48.072;7.800;2023-03-26T03:19:02;98772.81;;;11.52;54.77
63556;BME280;49700;48.072;7.800;2023-03-26T03:21:39;98752.72;;;11.51;54.70
63556;BME280;49700;48.072;7.800;2023-03-26T03:24:23;98735.41;;;11.49;54.83
63556;BME280;49700;48.072;7.800;2023-03-26T03:26:49;98724.44;;;11.44;55.23
63556;BME280;49700;48.072;7.800;2023-03-26T03:29:42;98722.88;;;11.41;55.19
63556;BME280;49700;48.072;7.800;2023-03-26T03:32:31;98739.63;;;11.40;55.46
63556;BME280;49700;48.072;7.800;2023-03-26T03:35:01;98731.84;;;11.39;55.58
63556;BME280;49700;48.072;7.800;2023-03-26T03:37:30;98734.47;;;11.39;55.79
63556;BME280;49700;48.072;7.800;2023-03-26T03:39:57;98735.44;;;11.38;56.16
63556;BME280;49700;48.072;7.800;2023-03-26T03:42:28;98726.72;;;11.37;56.48
63556;BME280;49700;48.072;7.800;2023-03-26T03:45:01;98710.09;;;11.37;56.82
63556;BME280;49700;48.072;7.800;2023-03-26T03:48:02;98711.69;;;11.28;57.28
63556;BME280;49700;48.072;7.800;2023-03-26T03:50:40;98712.06;;;11.23;57.62
63556;BME280;49700;48.072;7.800;2023-03-26T03:53:22;98714.25;;;11.18;58.03
63556;BME280;49700;48.072;7.800;2023-03-26T03:55:53;98715.44;;;11.14;58.11
63556;BME280;49700;48.072;7.800;2023-03-26T03:58:21;98705.06;;;11.13;58.33
63556;BME280;49700;48.072;7.800;2023-03-26T04:00:50;98701.56;;;11.12;58.63
63556;BME280;49700;48.072;7.800;2023-03-26T04:03:35;98699.19;;;11.09;58.70
63556;BME280;49700;48.072;7.800;2023-03-26T04:06:08;98694.66;;;11.11;59.96
63556;BME280;49700;48.072;7.800;2023-03-26T04:08:36;98689.19;;;11.03;60.72
63556;BME280;49700;48.072;7.800;2023-03-26T04:11:04;98677.00;;;10.91;60.99
63556;BME280;49700;48.072;7.800;2023-03-26T04:14:03;98663.81;;;10.70;62.01
63556;BME280;49700;48.072;7.800;2023-03-26T04:16:44;98672.28;;;10.62;62.06
63556;BME280;49700;48.072;7.800;2023-03-26T04:19:10;98657.84;;;10.56;62.37
63556;BME280;49700;48.072;7.800;2023-03-26T04:21:36;98660.72;;;10.53;62.55
63556;BME280;49700;48.072;7.800;2023-03-26T04:24:03;98647.94;;;10.49;62.75
63556;BME280;49700;48.072;7.800;2023-03-26T04:26:51;98639.25;;;10.48;62.75
63556;BME280;49700;48.072;7.800;2023-03-26T04:29:22;98637.31;;;10.50;62.68
63556;BME280;49700;48.072;7.800;2023-03-26T04:31:55;98633.50;;;10.54;62.68
63556;BME280;49700;48.072;7.800;2023-03-26T04:34:31;98627.19;;;10.57;62.56
63556;BME280;49700;48.072;7.800;2023-03-26T04:37:23;98616.09;;;10.53;62.89
63556;BME280;49700;48.072;7.800;2023-03-26T04:40:02;98616.09;;;10.53;62.99
63556;BME280;49700;48.072;7.800;2023-03-26T04:42:37;98607.34;;;10.53;63.00
63556;BME280;49700;48.072;7.800;2023-03-26T04:45:17;98591.75;;;10.51;63.39
63556;BME280;49700;48.072;7.800;2023-03-26T04:47:49;98581.84;;;10.44;63.69
63556;BME280;49700;48.072;7.800;2023-03-26T04:50:15;98597.13;;;10.38;63.99
63556;BME280;49700;48.072;7.800;2023-03-26T04:52:42;98603.34;;;10.37;63.91
63556;BME280;49700;48.072;7.800;2023-03-26T04:55:36;98600.47;;;10.40;63.80
63556;BME280;49700;48.072;7.800;2023-03-26T04:58:14;98590.53;;;10.44;63.84
63556;BME280;49700;48.072;7.800;2023-03-26T05:00:50;98580.53;;;10.49;63.66
63556;BME280;49700;48.072;7.800;2023-03-26T05:03:15;98574.91;;;10.54;63.42
63556;BME280;49700;48.072;7.800;2023-03-26T05:05:42;98577.16;;;10.58;64.07
63556;BME280;49700;48.072;7.800;2023-03-26T05:08:08;98568.19;;;10.61;64.27
63556;BME280;49700;48.072;7.800;2023-03-26T05:10:33;98562.00;;;10.62;63.90
63556;BME280;49700;48.072;7.800;2023-03-26T05:13:04;98558.66;;;10.60;63.98
63556;BME280;49700;48.072;7.800;2023-03-26T05:15:33;98559.63;;;10.59;64.20
63556;BME280;49700;48.072;7.800;2023-03-26T05:18:05;98563.06;;;10.59;64.30
63556;BME280;49700;48.072;7.800;2023-03-26T05:20:39;98560.09;;;10.64;64.11
63556;BME280;49700;48.072;7.800;2023-03-26T05:23:06;98550.16;;;10.68;63.83
63556;BME280;49700;48.072;7.800;2023-03-26T05:25:35;98550.38;;;10.76;63.27
63556;BME280;49700;48.072;7.800;2023-03-26T05:28:02;98547.84;;;10.85;62.77
63556;BME280;49700;48.072;7.800;2023-03-26T05:30:36;98538.22;;;10.96;62.33
63556;BME280;49700;48.072;7.800;2023-03-26T05:33:02;98541.91;;;11.04;61.79
63556;BME280;49700;48.072;7.800;2023-03-26T05:35:34;98530.63;;;11.14;61.42
63556;BME280;49700;48.072;7.800;2023-03-26T05:38:00;98513.50;;;11.19;61.03
63556;BME280;49700;48.072;7.800;2023-03-26T05:40:25;98501.53;;;11.26;60.90
63556;BME280;49700;48.072;7.800;2023-03-26T05:43:02;98500.44;;;11.29;60.80
63556;BME280;49700;48.072;7.800;2023-03-26T05:45:34;98492.28;;;11.32;60.88
63556;BME280;49700;48.072;7.800;2023-03-26T05:48:10;98477.22;;;11.34;60.93
63556;BME280;49700;48.072;7.800;2023-03-26T05:50:36;98473.47;;;11.37;60.88
63556;BME280;49700;48.072;7.800;2023-03-26T05:53:02;98463.66;;;11.39;60.79
63556;BME280;49700;48.072;7.800;2023-03-26T05:55:59;98467.00;;;11.41;60.83
63556;BME280;49700;48.072;7.800;2023-03-26T05:58:49;98467.72;;;11.43;60.97
63556;BME280;49700;48.072;7.800;2023-03-26T06:01:33;98454.31;;;11.46;60.98
63556;BME280;49700;48.072;7.800;2023-03-26T06:04:14;98441.16;;;11.46;60.91
63556;BME280;49700;48.072;7.800;2023-03-26T06:07:08;98443.41;;;11.50;60.87
63556;BME280;49700;48.072;7.800;2023-03-26T06:09:38;98424.00;;;11.51;61.09
63556;BME280;49700;48.072;7.800;2023-03-26T06:12:06;98423.19;;;11.51;61.01
63556;BME280;49700;48.072;7.800;2023-03-26T06:14:32;98412.50;;;11.52;61.11
63556;BME280;49700;48.072;7.800;2023-03-26T06:17:21;98416.81;;;11.54;61.14
63556;BME280;49700;48.072;7.800;2023-03-26T06:20:12;98412.25;;;11.56;61.12
63556;BME280;49700;48.072;7.800;2023-03-26T06:22:44;98410.19;;;11.59;61.12
63556;BME280;49700;48.072;7.800;2023-03-26T06:25:17;98413.38;;;11.63;61.20
63556;BME280;49700;48.072;7.800;2023-03-26T06:28:04;98418.53;;;11.64;61.12
63556;BME280;49700;48.072;7.800;2023-03-26T06:30:49;98408.56;;;11.68;61.13
63556;BME280;49700;48.072;7.800;2023-03-26T06:33:34;98412.72;;;11.70;61.01
63556;BME280;49700;48.072;7.800;2023-03-26T06:35:59;98414.09;;;11.74;61.02
63556;BME280;49700;48.072;7.800;2023-03-26T06:38:25;98399.03;;;11.77;61.22
63556;BME280;49700;48.072;7.800;2023-03-26T06:40:51;98404.16;;;11.78;61.21
63556;BME280;49700;48.072;7.800;2023-03-26T06:43:25;98398.06;;;11.78;61.15
63556;BME280;49700;48.072;7.800;2023-03-26T06:46:17;98405.69;;;11.81;61.07
63556;BME280;49700;48.072;7.800;2023-03-26T06:49:01;98401.13;;;11.83;61.38
63556;BME280;49700;48.072;7.800;2023-03-26T06:51:46;98396.69;;;11.83;61.43
63556;BME280;49700;48.072;7.800;2023-03-26T06:54:30;98394.91;;;11.84;61.38
63556;BME280;49700;48.072;7.800;2023-03-26T06:57:14;98390.63;;;11.83;61.56
63556;BME280;49700;48.072;7.800;2023-03-26T06:59:58;98380.91;;;11.83;62.06
63556;BME280;49700;48.072;7.800;2023-03-26T07:02:42;98389.22;;;11.79;62.56
63556;BME280;49700;48.072;7.800;2023-03-26T07:05:26;98374.53;;;11.76;63.51
63556;BME280;49700;48.072;7.800;2023-03-26T07:08:17;98385.31;;;11.73;64.11
63556;BME280;49700;48.072;7.800;2023-03-26T07:11:12;98391.69;;;11.70;64.12
63556;BME280;49700;48.072;7.800;2023-03-26T07:14:09;98390.03;;;11.69;64.40
63556;BME280;49700;48.072;7.800;2023-03-26T07:17:02;98375.34;;;11.67;64.41
63556;BME280;49700;48.072;7.800;2023-03-26T07:19:59;98367.72;;;11.64;64.47
63556;BME280;49700;48.072;7.800;2023-03-26T07:22:26;98378.09;;;11.65;64.47
63556;BME280;49700;48.072;7.800;2023-03-26T07:24:57;98375.34;;;11.67;64.42
63556;BME280;49700;48.072;7.800;2023-03-26T07:27:58;98360.38;;;11.67;64.25
63556;BME280;49700;48.072;7.800;2023-03-26T07:30:58;98381.44;;;11.67;64.58
63556;BME280;49700;48.072;7.800;2023-03-26T07:33:44;98370.91;;;11.67;64.59
63556;BME280;49700;48.072;7.800;2023-03-26T07:36:56;98385.16;;;11.65;65.07
63556;BME280;49700;48.072;7.800;2023-03-26T07:39:47;98396.38;;;11.67;64.86
63556;BME280;49700;48.072;7.800;2023-03-26T07:42:53;98394.44;;;11.69;64.85
63556;BME280;49700;48.072;7.800;2023-03-26T07:48:24;98408.56;;;11.68;64.86
63556;BME280;49700;48.072;7.800;2023-03-26T07:51:14;98400.56;;;11.69;65.23
63556;BME280;49700;48.072;7.800;2023-03-26T07:53:58;98397.22;;;11.67;65.50
63556;BME280;49700;48.072;7.800;2023-03-26T07:57:07;98398.31;;;11.65;66.03
63556;BME280;49700;48.072;7.800;2023-03-26T07:59:53;98399.53;;;11.61;66.37
63556;BME280;49700;48.072;7.800;2023-03-26T08:08:47;98410.06;;;11.61;67.23
63556;BME280;49700;48.072;7.800;2023-03-26T08:12:00;98401.72;;;11.56;67.48
63556;BME280;49700;48.072;7.800;2023-03-26T08:17:29;98396.34;;;11.57;67.25
63556;BME280;49700;48.072;7.800;2023-03-26T08:20:25;98396.91;;;11.61;66.79
63556;BME280;49700;48.072;7.800;2023-03-26T08:23:12;98391.69;;;11.70;66.22
63556;BME280;49700;48.072;7.800;2023-03-26T08:28:55;98401.44;;;12.96;62.83
63556;BME280;49700;48.072;7.800;2023-03-26T08:31:36;98404.34;;;13.78;60.55
63556;BME280;49700;48.072;7.800;2023-03-26T08:34:03;98400.78;;;14.50;58.14
63556;BME280;49700;48.072;7.800;2023-03-26T08:36:28;98409.94;;;15.00;56.63
63556;BME280;49700;48.072;7.800;2023-03-26T08:38:57;98393.53;;;15.22;55.47
63556;BME280;49700;48.072;7.800;2023-03-26T08:41:48;98396.16;;;15.83;53.87
63556;BME280;49700;48.072;7.800;2023-03-26T08:47:41;98378.47;;;17.31;49.13
63556;BME280;49700;48.072;7.800;2023-03-26T08:55:50;98379.84;;;18.28;46.46
63556;BME280;49700;48.072;7.800;2023-03-26T09:31:19;98376.31;;;17.34;47.65
63556;BME280;49700;48.072;7.800;2023-03-26T09:33:54;98380.22;;;16.99;48.05
63556;BME280;49700;48.072;7.800;2023-03-26T09:39:40;98367.81;;;16.50;46.57
63556;BME280;49700;48.072;7.800;2023-03-26T09:42:23;98362.97;;;16.21;46.58
63556;BME280;49700;48.072;7.800;2023-03-26T10:09:09;98398.44;;;16.69;42.18
63556;BME280;49700;48.072;7.800;2023-03-26T10:14:53;98405.13;;;17.45;38.37
63556;BME280;49700;48.072;7.800;2023-03-26T10:17:39;98405.34;;;17.75;39.00
63556;BME280;49700;48.072;7.800;2023-03-26T10:20:41;98412.31;;;17.84;40.53
63556;BME280;49700;48.072;7.800;2023-03-26T10:38:30;98393.56;;;18.40;39.27
63556;BME280;49700;48.072;7.800;2023-03-26T10:41:26;98384.16;;;18.52;37.24
63556;BME280;49700;48.072;7.800;2023-03-26T10:47:28;98387.06;;;18.43;35.00
63556;BME280;49700;48.072;7.800;2023-03-26T10:55:32;98383.97;;;18.08;33.80
63556;BME280;49700;48.072;7.800;2023-03-26T11:01:00;98377.72;;;18.24;34.38
63556;BME280;49700;48.072;7.800;2023-03-26T11:07:01;98375.66;;;18.34;33.90
63556;BME280;49700;48.072;7.800;2023-03-26T11:12:51;98381.59;;;18.13;34.30
63556;BME280;49700;48.072;7.800;2023-03-26T11:21:50;98362.09;;;17.98;34.83
63556;BME280;49700;48.072;7.800;2023-03-26T11:24:59;98355.91;;;18.05;35.15
63556;BME280;49700;48.072;7.800;2023-03-26T11:31:08;98351.06;;;18.09;35.02
63556;BME280;49700;48.072;7.800;2023-03-26T11:34:13;98349.81;;;18.20;34.59
63556;BME280;49700;48.072;7.800;2023-03-26T11:37:04;98342.25;;;18.08;34.16
63556;BME280;49700;48.072;7.800;2023-03-26T11:39:53;98342.25;;;17.85;34.20
63556;BME280;49700;48.072;7.800;2023-03-26T11:42:31;98353.47;;;17.64;34.51
63556;BME280;49700;48.072;7.800;2023-03-26T11:45:18;98350.06;;;17.47;34.02
63556;BME280;49700;48.072;7.800;2023-03-26T11:48:12;98355.44;;;17.31;34.65
63556;BME280;49700;48.072;7.800;2023-03-26T11:51:06;98370.53;;;17.14;34.51
63556;BME280;49700;48.072;7.800;2023-03-26T11:54:12;98379.91;;;16.86;34.58
63556;BME280;49700;48.072;7.800;2023-03-26T12:03:20;98394.88;;;16.03;35.90
63556;BME280;49700;48.072;7.800;2023-03-26T12:05:57;98382.75;;;15.84;36.63
63556;BME280;49700;48.072;7.800;2023-03-26T12:09:04;98369.06;;;15.55;37.50
63556;BME280;49700;48.072;7.800;2023-03-26T12:12:58;98377.72;;;15.31;38.86
63556;BME280;49700;48.072;7.800;2023-03-26T12:18:30;98373.75;;;15.00;40.43
63556;BME280;49700;48.072;7.800;2023-03-26T12:21:18;98370.22;;;14.92;40.52
63556;BME280;49700;48.072;7.800;2023-03-26T12:26:41;98367.78;;;14.72;41.09
63556;BME280;49700;48.072;7.800;2023-03-26T12:29:12;98361.44;;;14.65;41.12
63556;BME280;49700;48.072;7.800;2023-03-26T12:34:29;98359.47;;;14.49;41.42
63556;BME280;49700;48.072;7.800;2023-03-26T12:36:59;98349.22;;;14.46;41.66
63556;BME280;49700;48.072;7.800;2023-03-26T12:42:05;98333.53;;;14.45;41.58
63556;BME280;49700;48.072;7.800;2023-03-26T12:44:50;98337.66;;;14.47;41.91
63556;BME280;49700;48.072;7.800;2023-03-26T12:47:20;98338.59;;;14.38;42.51
63556;BME280;49700;48.072;7.800;2023-03-26T12:49:48;98338.38;;;14.31;42.15
63556;BME280;49700;48.072;7.800;2023-03-26T12:58:27;98313.69;;;14.23;42.64
63556;BME280;49700;48.072;7.800;2023-03-26T13:01:18;98304.63;;;14.25;42.39
63556;BME280;49700;48.072;7.800;2023-03-26T13:06:51;98294.19;;;14.42;41.75
63556;BME280;49700;48.072;7.800;2023-03-26T13:09:49;98299.38;;;14.51;41.46
63556;BME280;49700;48.072;7.800;2023-03-26T13:15:21;98288.72;;;14.53;42.09
63556;BME280;49700;48.072;7.800;2023-03-26T13:17:55;98287.63;;;14.46;42.54
63556;BME280;49700;48.072;7.800;2023-03-26T13:20:48;98287.41;;;14.39;43.13
63556;BME280;49700;48.072;7.800;2023-03-26T13:23:29;98285.31;;;14.43;43.71
63556;BME280;49700;48.072;7.800;2023-03-26T13:26:12;98275.75;;;14.50;44.05
63556;BME280;49700;48.072;7.800;2023-03-26T13:28:57;98277.50;;;14.59;44.28
63556;BME280;49700;48.072;7.800;2023-03-26T13:31:33;98272.28;;;14.67;44.76
63556;BME280;49700;48.072;7.800;2023-03-26T13:34:20;98259.75;;;14.69;45.09
63556;BME280;49700;48.072;7.800;2023-03-26T13:37:12;98257.75;;;14.71;45.44
63556;BME280;49700;48.072;7.800;2023-03-26T13:40:09;98247.84;;;14.73;45.47
63556;BME280;49700;48.072;7.800;2023-03-26T13:47:56;98210.72;;;14.75;44.73
63556;BME280;49700;48.072;7.800;2023-03-26T13:50:29;98231.31;;;14.71;45.53
63556;BME280;49700;48.072;7.800;2023-03-26T13:53:12;98293.19;;;14.60;46.93
63556;BME280;49700;48.072;7.800;2023-03-26T13:55:43;98403.81;;;14.37;48.69
63556;BME280;49700;48.072;7.800;2023-03-26T13:58:19;98369.41;;;13.38;49.66
63556;BME280;49700;48.072;7.800;2023-03-26T14:03:47;98392.91;;;11.66;56.87
63556;BME280;49700;48.072;7.800;2023-03-26T14:08:52;98411.66;;;11.12;60.00
63556;BME280;49700;48.072;7.800;2023-03-26T14:11:30;98412.69;;;10.99;60.16
63556;BME280;49700;48.072;7.800;2023-03-26T14:14:09;98428.41;;;10.90;60.26
63556;BME280;49700;48.072;7.800;2023-03-26T14:16:42;98443.84;;;10.83;60.24
63556;BME280;49700;48.072;7.800;2023-03-26T14:19:35;98431.34;;;10.75;59.97
63556;BME280;49700;48.072;7.800;2023-03-26T14:27:56;98437.09;;;11.11;59.26
63556;BME280;49700;48.072;7.800;2023-03-26T14:33:21;98413.59;;;11.50;58.61
63556;BME280;49700;48.072;7.800;2023-03-26T14:38:49;98422.16;;;11.73;57.81
63556;BME280;49700;48.072;7.800;2023-03-26T14:41:28;98420.78;;;11.79;57.95
63556;BME280;49700;48.072;7.800;2023-03-26T14:44:19;98433.66;;;11.82;57.99
63556;BME280;49700;48.072;7.800;2023-03-26T14:55:11;98415.34;;;12.30;58.20
63556;BME280;49700;48.072;7.800;2023-03-26T14:57:49;98420.06;;;12.46;57.81
63556;BME280;49700;48.072;7.800;2023-03-26T15:03:33;98424.75;;;12.72;56.47
63556;BME280;49700;48.072;7.800;2023-03-26T15:42:21;98391.22;;;12.64;54.68
63556;BME280;49700;48.072;7.800;2023-03-26T15:45:37;98394.84;;;12.53;54.90
63556;BME280;49700;48.072;7.800;2023-03-26T15:53:33;98402.19;;;12.11;56.61
63556;BME280;49700;48.072;7.800;2023-03-26T15:56:09;98405.34;;;11.95;56.65
63556;BME280;49700;48.072;7.800;2023-03-26T16:01:34;98412.34;;;11.75;57.35
63556;BME280;49700;48.072;7.800;2023-03-26T16:04:24;98416.56;;;11.66;57.85
63556;BME280;49700;48.072;7.800;2023-03-26T16:06:59;98410.47;;;11.56;57.48
63556;BME280;49700;48.072;7.800;2023-03-26T16:14:40;98448.50;;;11.52;57.79
63556;BME280;49700;48.072;7.800;2023-03-26T16:17:25;98458.06;;;11.53;57.64
63556;BME280;49700;48.072;7.800;2023-03-26T16:20:18;98447.56;;;11.53;57.59
63556;BME280;49700;48.072;7.800;2023-03-26T16:22:58;98459.19;;;11.50;57.45
63556;BME280;49700;48.072;7.800;2023-03-26T16:25:32;98440.06;;;11.48;56.95
63556;BME280;49700;48.072;7.800;2023-03-26T16:30:34;98455.78;;;11.39;57.22
63556;BME280;49700;48.072;7.800;2023-03-26T16:33:08;98458.09;;;11.32;57.12
63556;BME280;49700;48.072;7.800;2023-03-26T16:38:45;98446.81;;;11.20;56.62
63556;BME280;49700;48.072;7.800;2023-03-26T16:41:21;98442.81;;;11.16;56.65
63556;BME280;49700;48.072;7.800;2023-03-26T16:47:29;98439.00;;;11.09;56.63
63556;BME280;49700;48.072;7.800;2023-03-26T16:50:24;98433.19;;;11.05;56.38
63556;BME280;49700;48.072;7.800;2023-03-26T17:00:35;98436.53;;;11.07;56.15
63556;BME280;49700;48.072;7.800;2023-03-26T17:13:50;98443.00;;;11.03;56.42
63556;BME280;49700;48.072;7.800;2023-03-26T17:16:59;98455.31;;;11.03;56.72
63556;BME280;49700;48.072;7.800;2023-03-26T17:19:33;98464.16;;;11.02;56.87
63556;BME280;49700;48.072;7.800;2023-03-26T17:22:07;98460.00;;;10.99;57.33
63556;BME280;49700;48.072;7.800;2023-03-26T17:25:00;98465.25;;;10.99;57.54
63556;BME280;49700;48.072;7.800;2023-03-26T17:27:57;98472.69;;;10.94;58.03
63556;BME280;49700;48.072;7.800;2023-03-26T17:30:53;98481.91;;;10.89;58.29
63556;BME280;49700;48.072;7.800;2023-03-26T17:35:50;98475.59;;;10.80;58.72
63556;BME280;49700;48.072;7.800;2023-03-26T17:41:02;98485.06;;;10.71;59.04
63556;BME280;49700;48.072;7.800;2023-03-26T17:43:48;98488.69;;;10.70;59.11
63556;BME280;49700;48.072;7.800;2023-03-26T17:46:40;98480.78;;;10.70;59.27
63556;BME280;49700;48.072;7.800;2023-03-26T17:51:49;98494.88;;;10.69;59.54
63556;BME280;49700;48.072;7.800;2023-03-26T17:54:32;98494.19;;;10.67;59.51
63556;BME280;49700;48.072;7.800;2023-03-26T17:57:02;98487.38;;;10.65;59.57
63556;BME280;49700;48.072;7.800;2023-03-26T17:59:30;98492.75;;;10.63;59.84
63556;BME280;49700;48.072;7.800;2023-03-26T18:01:59;98489.88;;;10.66;59.82
63556;BME280;49700;48.072;7.800;2023-03-26T18:04:35;98492.25;;;10.69;59.64
63556;BME280;49700;48.072;7.800;2023-03-26T18:07:35;98488.41;;;10.73;59.80
63556;BME280;49700;48.072;7.800;2023-03-26T18:13:07;98483.88;;;10.75;59.77
63556;BME280;49700;48.072;7.800;2023-03-26T18:15:38;98473.63;;;10.72;59.83
63556;BME280;49700;48.072;7.800;2023-03-26T18:18:11;98468.38;;;10.72;59.81
63556;BME280;49700;48.072;7.800;2023-03-26T18:20:51;98472.66;;;10.73;59.94
63556;BME280;49700;48.072;7.800;2023-03-26T18:23:23;98476.25;;;10.72;60.23
63556;BME280;49700;48.072;7.800;2023-03-26T18:25:56;98479.00;;;10.71;60.07
63556;BME280;49700;48.072;7.800;2023-03-26T18:28:29;98481.06;;;10.67;60.17
63556;BME280;49700;48.072;7.800;2023-03-26T18:31:06;98479.63;;;10.63;60.25
63556;BME280;49700;48.072;7.800;2023-03-26T18:33:42;98476.53;;;10.58;60.48
63556;BME280;49700;48.072;7.800;2023-03-26T18:36:09;98478.47;;;10.56;60.42
63556;BME280;49700;48.072;7.800;2023-03-26T18:38:35;98473.34;;;10.54;60.54
63556;BME280;49700;48.072;7.800;2023-03-26T18:41:01;98467.25;;;10.54;60.45
63556;BME280;49700;48.072;7.800;2023-03-26T18:43:28;98470.81;;;10.53;60.60
63556;BME280;49700;48.072;7.800;2023-03-26T18:45:54;98470.00;;;10.52;60.58
63556;BME280;49700;48.072;7.800;2023-03-26T18:48:22;98462.38;;;10.49;60.61
63556;BME280;49700;48.072;7.800;2023-03-26T18:51:02;98459.16;;;10.46;60.92
63556;BME280;49700;48.072;7.800;2023-03-26T18:53:33;98455.13;;;10.41;61.00